Time;durP1;ratioP1;P1;durP2;ratioP2;P2;SDS_P1;SDS_P2;PMS_P1;PMS_P2;Temp;Humidity;BMP_temperature;BMP_pressure;BME280_temperature;BME280_humidity;BME280_pressure;Samples;Min_cycle;Max_cycle;Signal;HPM_P1;HPM_P2
2021/08/18 00:00:18;;;;;;;5.23;2.17;;;;;;;15.17;86.57;101635.00;688350;28;844;-59
2021/08/18 00:00:43;;;;;;;5.65;2.05;;;;;;;15.16;86.61;101630.59;686797;28;1597;-59
2021/08/18 00:01:04;;;;;;;6.32;2.10;;;;;;;15.16;86.73;101627.94;685765;28;1299;-58
2021/08/18 00:01:24;;;;;;;6.40;2.20;;;;;;;15.15;86.70;101628.88;685582;28;898;-58
2021/08/18 00:01:47;;;;;;;5.50;2.47;;;;;;;15.15;86.63;101633.34;685628;28;1104;-58
2021/08/18 00:02:10;;;;;;;6.38;2.30;;;;;;;15.15;86.57;101634.19;685493;28;1337;-58
2021/08/18 00:02:31;;;;;;;5.70;2.13;;;;;;;15.17;86.71;101631.47;685944;28;1412;-59
2021/08/18 00:02:51;;;;;;;5.45;2.22;;;;;;;15.17;86.59;101632.34;685269;28;1035;-58
2021/08/18 00:03:12;;;;;;;5.80;2.30;;;;;;;15.16;86.42;101638.56;685795;28;983;-58
2021/08/18 00:03:32;;;;;;;5.63;2.25;;;;;;;15.17;86.54;101636.75;685775;28;987;-58
2021/08/18 00:03:53;;;;;;;6.88;2.45;;;;;;;15.16;86.68;101630.59;685798;28;881;-58
2021/08/18 00:04:19;;;;;;;6.67;2.60;;;;;;;15.15;86.40;101628.88;685677;28;832;-57
2021/08/18 00:04:42;;;;;;;5.95;2.30;;;;;;;15.17;86.21;101627.03;685786;28;963;-58
2021/08/18 00:05:04;;;;;;;6.55;2.22;;;;;;;15.17;86.53;101632.34;685638;28;872;-58
2021/08/18 00:05:24;;;;;;;6.30;2.40;;;;;;;15.18;86.14;101636.72;685802;28;900;-58
2021/08/18 00:05:45;;;;;;;5.63;2.50;;;;;;;15.18;86.49;101634.06;685740;28;1027;-59
2021/08/18 00:06:06;;;;;;;6.13;2.42;;;;;;;15.19;86.47;101630.44;685580;28;1362;-58
2021/08/18 00:06:26;;;;;;;6.07;2.30;;;;;;;15.18;86.50;101634.06;686385;28;1383;-59
2021/08/18 00:06:46;;;;;;;4.93;2.00;;;;;;;15.19;86.33;101626.94;688402;28;1282;-59
2021/08/18 00:07:07;;;;;;;5.13;2.20;;;;;;;15.19;86.19;101629.59;686625;28;1398;-59
2021/08/18 00:07:29;;;;;;;6.27;2.20;;;;;;;15.20;86.36;101632.16;685753;28;1027;-59
2021/08/18 00:07:50;;;;;;;7.22;2.38;;;;;;;15.20;86.26;101634.81;685824;28;950;-58
2021/08/18 00:08:12;;;;;;;6.10;2.47;;;;;;;15.20;86.00;101637.47;685709;28;1019;-59
2021/08/18 00:08:32;;;;;;;5.90;2.17;;;;;;;15.22;86.36;101640.06;685783;28;844;-58
2021/08/18 00:08:52;;;;;;;6.15;2.20;;;;;;;15.23;86.40;101635.63;687399;28;1457;-58
2021/08/18 00:09:13;;;;;;;5.93;2.30;;;;;;;15.22;86.22;101633.91;688340;28;909;-58
2021/08/18 00:09:34;;;;;;;5.40;2.15;;;;;;;15.20;86.50;101639.28;688528;28;982;-59
2021/08/18 00:09:55;;;;;;;4.70;2.17;;;;;;;15.22;86.38;101639.22;688330;28;836;-58
2021/08/18 00:10:15;;;;;;;5.97;2.33;;;;;;;15.20;86.53;101639.28;688439;28;943;-58
2021/08/18 00:10:37;;;;;;;6.77;2.40;;;;;;;15.22;86.37;101639.22;688451;28;908;-58
2021/08/18 00:10:57;;;;;;;4.85;2.10;;;;;;;15.25;86.20;101639.06;687273;28;1430;-58
2021/08/18 00:11:17;;;;;;;4.77;2.10;;;;;;;15.27;85.97;101631.88;685839;28;1004;-58
2021/08/18 00:11:37;;;;;;;5.57;2.10;;;;;;;15.26;85.94;101635.47;685801;28;893;-59
2021/08/18 00:11:58;;;;;;;6.13;2.37;;;;;;;15.27;86.03;101637.19;685720;28;851;-58
2021/08/18 00:12:18;;;;;;;6.60;2.30;;;;;;;15.26;85.98;101638.13;685766;28;1221;-58
2021/08/18 00:12:39;;;;;;;6.28;2.35;;;;;;;15.27;86.05;101645.16;685507;28;1962;-58
2021/08/18 00:12:59;;;;;;;6.07;2.50;;;;;;;15.26;85.95;101646.94;685424;28;900;-58
2021/08/18 00:13:22;;;;;;;6.60;2.20;;;;;;;15.24;85.78;101647.94;685759;28;1339;-58
2021/08/18 00:13:43;;;;;;;7.18;2.25;;;;;;;15.29;86.01;101640.63;685833;28;916;-58
2021/08/18 00:14:03;;;;;;;7.37;2.47;;;;;;;15.28;86.01;101642.44;685376;28;1144;-58
2021/08/18 00:14:23;;;;;;;6.22;2.28;;;;;;;15.28;86.07;101644.22;685729;28;1029;-58
2021/08/18 00:14:46;;;;;;;6.90;2.30;;;;;;;15.28;86.02;101644.22;686751;28;1512;-58
2021/08/18 00:15:12;;;;;;;6.40;2.08;;;;;;;15.26;86.14;101646.94;688381;28;836;-58
2021/08/18 00:15:33;;;;;;;5.97;2.13;;;;;;;15.25;86.19;101649.69;688387;28;994;-58
2021/08/18 00:15:56;;;;;;;6.18;2.30;;;;;;;15.25;85.96;101636.41;688447;28;920;-59
2021/08/18 00:16:18;;;;;;;5.72;2.28;;;;;;;15.25;85.88;101636.41;688452;28;1451;-59
2021/08/18 00:16:38;;;;;;;5.45;2.10;;;;;;;15.24;85.97;101638.19;688470;28;1006;-57
2021/08/18 00:17:01;;;;;;;5.80;2.15;;;;;;;15.24;85.81;101638.19;688038;28;1410;-58
2021/08/18 00:17:24;;;;;;;6.22;2.20;;;;;;;15.20;85.50;101642.78;683177;28;877;-58
2021/08/18 00:17:44;;;;;;;7.28;2.28;;;;;;;15.22;85.75;101644.53;683140;28;1019;-57
2021/08/18 00:18:05;;;;;;;8.10;2.80;;;;;;;15.20;85.63;101637.47;683163;28;884;-58
2021/08/18 00:18:26;;;;;;;7.00;2.53;;;;;;;15.19;85.83;101643.72;683251;28;876;-59
2021/08/18 00:18:51;;;;;;;5.22;2.20;;;;;;;15.21;85.98;101641.03;682999;28;951;-58
2021/08/18 00:19:24;;;;;;;6.10;2.30;;;;;;;15.19;85.93;101641.06;684127;28;1410;-58
2021/08/18 00:19:44;;;;;;;5.78;2.30;;;;;;;15.18;85.86;101642.03;685842;28;905;-57
2021/08/18 00:20:05;;;;;;;5.35;2.20;;;;;;;15.19;85.60;101643.72;685693;28;1003;-59
2021/08/18 00:20:27;;;;;;;5.65;2.25;;;;;;;15.18;85.76;101636.72;685860;28;881;-60
2021/08/18 00:20:51;;;;;;;7.25;2.60;;;;;;;15.18;85.69;101634.06;685617;28;1288;-59
2021/08/18 00:21:11;;;;;;;5.15;2.53;;;;;;;15.18;85.75;101644.69;685664;28;1264;-59
2021/08/18 00:21:32;;;;;;;6.10;2.33;;;;;;;15.16;85.42;101641.22;685827;28;801;-58
2021/08/18 00:21:52;;;;;;;5.43;2.47;;;;;;;15.16;85.83;101637.72;685740;28;1003;-59
2021/08/18 00:22:12;;;;;;;5.47;2.38;;;;;;;15.15;85.53;101644.81;685924;28;802;-59
2021/08/18 00:22:33;;;;;;;7.40;2.50;;;;;;;15.14;85.18;101631.59;685851;28;846;-58
2021/08/18 00:22:54;;;;;;;7.50;2.40;;;;;;;15.14;85.01;101643.09;685110;28;1023;-58
2021/08/18 00:23:14;;;;;;;5.87;2.30;;;;;;;15.13;84.96;101641.38;685905;28;1251;-58
2021/08/18 00:23:34;;;;;;;7.13;2.40;;;;;;;15.14;84.96;101632.50;685844;28;817;-58
2021/08/18 00:23:57;;;;;;;8.17;2.57;;;;;;;15.15;85.07;101639.50;685752;28;821;-58
2021/08/18 00:24:17;;;;;;;7.13;2.60;;;;;;;15.15;85.16;101634.19;685912;28;979;-58
2021/08/18 00:24:38;;;;;;;6.57;2.40;;;;;;;15.15;85.24;101644.81;685709;28;1038;-58
2021/08/18 00:24:58;;;;;;;5.33;2.17;;;;;;;15.15;85.30;101638.66;685686;28;924;-58
2021/08/18 00:25:18;;;;;;;5.60;2.40;;;;;;;15.14;85.32;101640.47;685839;28;935;-58
2021/08/18 00:25:39;;;;;;;5.95;2.20;;;;;;;15.13;84.83;101640.50;685737;28;817;-59
2021/08/18 00:25:59;;;;;;;4.90;2.20;;;;;;;15.13;85.10;101641.38;685783;28;789;-58
2021/08/18 00:26:26;;;;;;;6.97;2.70;;;;;;;15.13;85.10;101638.72;685895;28;832;-58
2021/08/18 00:26:47;;;;;;;6.28;2.70;;;;;;;15.12;84.66;101638.81;685593;28;1450;-58
2021/08/18 00:27:07;;;;;;;5.70;2.53;;;;;;;15.13;84.67;101636.06;686408;28;1398;-57
2021/08/18 00:27:27;;;;;;;5.95;2.97;;;;;;;15.12;84.27;101639.66;688513;28;852;-59
2021/08/18 00:27:48;;;;;;;5.50;2.60;;;;;;;15.13;84.35;101637.84;688407;28;832;-60
2021/08/18 00:28:14;;;;;;;5.80;2.50;;;;;;;15.12;84.19;101634.34;688520;28;872;-58
2021/08/18 00:28:34;;;;;;;5.47;2.60;;;;;;;15.11;84.35;101643.25;688360;28;911;-59
2021/08/18 00:28:55;;;;;;;6.03;2.80;;;;;;;15.10;84.61;101641.50;688431;28;912;-60
2021/08/18 00:29:15;;;;;;;6.55;3.00;;;;;;;15.11;84.61;101637.94;688424;28;876;-59
2021/08/18 00:29:36;;;;;;;6.37;2.77;;;;;;;15.11;84.56;101635.28;688340;28;956;-59
2021/08/18 00:29:56;;;;;;;6.30;2.70;;;;;;;15.12;84.34;101644.97;688386;28;801;-59
2021/08/18 00:30:16;;;;;;;6.60;2.70;;;;;;;15.11;84.55;101648.56;688480;28;1000;-59
2021/08/18 00:30:37;;;;;;;7.47;2.93;;;;;;;15.12;84.27;101644.09;688377;28;830;-59
2021/08/18 00:30:57;;;;;;;6.57;2.90;;;;;;;15.11;84.52;101643.25;688347;28;1299;-59
2021/08/18 00:31:18;;;;;;;6.57;2.70;;;;;;;15.10;84.47;101644.16;688084;28;1441;-59
2021/08/18 00:31:38;;;;;;;6.10;2.73;;;;;;;15.11;84.51;101637.09;688263;28;837;-60
2021/08/18 00:32:02;;;;;;;7.53;3.00;;;;;;;15.09;84.50;101634.50;688491;28;923;-59
2021/08/18 00:32:24;;;;;;;6.38;2.63;;;;;;;15.10;84.48;101641.50;688412;28;983;-59
2021/08/18 00:32:44;;;;;;;6.90;2.80;;;;;;;15.09;84.51;101641.59;687964;28;1964;-60
2021/08/18 00:33:05;;;;;;;6.13;2.80;;;;;;;15.08;84.17;101643.41;688335;28;836;-57
2021/08/18 00:33:25;;;;;;;6.53;2.75;;;;;;;15.09;84.32;101645.09;688272;28;829;-60
2021/08/18 00:33:46;;;;;;;6.68;2.85;;;;;;;15.10;84.36;101641.50;688363;28;880;-59
2021/08/18 00:34:06;;;;;;;6.60;2.90;;;;;;;15.08;83.70;101643.41;688491;28;808;-59
2021/08/18 00:34:26;;;;;;;5.73;2.90;;;;;;;15.09;84.07;101645.09;688508;28;810;-59
2021/08/18 00:34:49;;;;;;;6.60;2.80;;;;;;;15.10;83.86;101638.84;688336;28;1027;-58
2021/08/18 00:35:10;;;;;;;7.03;2.83;;;;;;;15.10;83.73;101644.16;687519;28;1358;-59
2021/08/18 00:35:31;;;;;;;6.95;3.03;;;;;;;15.11;84.02;101640.59;688352;28;876;-59
2021/08/18 00:35:51;;;;;;;6.67;3.00;;;;;;;15.12;83.95;101639.66;688332;28;1045;-59
2021/08/18 00:36:11;;;;;;;7.07;2.70;;;;;;;15.11;84.10;101640.59;688402;28;976;-58
2021/08/18 00:36:32;;;;;;;7.33;2.70;;;;;;;15.11;83.98;101637.94;688308;28;884;-58
2021/08/18 00:36:52;;;;;;;6.67;3.00;;;;;;;15.11;84.14;101643.25;688341;28;968;-59
2021/08/18 00:37:12;;;;;;;6.00;3.00;;;;;;;15.10;83.70;101641.50;686714;28;1453;-58
2021/08/18 00:37:32;;;;;;;6.53;2.90;;;;;;;15.08;84.18;101638.09;685578;28;849;-58
2021/08/18 00:37:54;;;;;;;6.93;2.73;;;;;;;15.08;84.34;101635.44;685761;28;891;-58
2021/08/18 00:38:14;;;;;;;6.63;2.70;;;;;;;15.08;84.12;101638.09;685852;28;1547;-58
2021/08/18 00:38:35;;;;;;;5.50;2.60;;;;;;;15.08;83.89;101638.09;685754;28;880;-59
2021/08/18 00:38:55;;;;;;;5.95;2.88;;;;;;;15.09;83.85;101634.50;685976;28;1509;-58
2021/08/18 00:39:15;;;;;;;5.43;2.80;;;;;;;15.08;84.21;101638.09;685608;28;1061;-59
2021/08/18 00:39:38;;;;;;;6.10;2.90;;;;;;;15.09;83.93;101638.94;685418;28;918;-58
2021/08/18 00:39:58;;;;;;;7.30;2.97;;;;;;;15.09;84.04;101629.19;685651;28;995;-58
2021/08/18 00:40:19;;;;;;;7.13;3.00;;;;;;;15.08;84.04;101640.75;685729;28;846;-57
2021/08/18 00:40:39;;;;;;;7.10;2.80;;;;;;;15.07;84.07;101636.38;685718;28;837;-59
2021/08/18 00:41:00;;;;;;;7.57;2.83;;;;;;;15.07;84.06;101632.84;685784;28;1496;-58
2021/08/18 00:41:21;;;;;;;8.10;3.10;;;;;;;15.07;84.16;101631.06;688374;28;912;-57
2021/08/18 00:41:43;;;;;;;6.25;2.80;;;;;;;15.07;84.28;101644.34;688163;28;922;-58
2021/08/18 00:42:06;;;;;;;7.25;3.00;;;;;;;15.07;84.11;101635.50;688413;28;850;-58
2021/08/18 00:42:26;;;;;;;6.68;2.97;;;;;;;15.08;84.11;101639.88;688284;28;988;-60
2021/08/18 00:42:47;;;;;;;5.50;3.22;;;;;;;15.09;83.89;101636.28;687981;28;932;-58
2021/08/18 00:43:08;;;;;;;5.53;2.88;;;;;;;15.09;84.05;101636.28;688322;28;1011;-58
2021/08/18 00:43:28;;;;;;;7.30;3.00;;;;;;;15.08;83.80;101638.09;687001;28;1489;-59
2021/08/18 00:43:50;;;;;;;6.78;2.95;;;;;;;15.09;84.10;101634.50;688012;28;1415;-59
2021/08/18 00:44:10;;;;;;;7.07;3.00;;;;;;;15.10;84.03;101641.50;688260;28;1486;-59
2021/08/18 00:44:33;;;;;;;6.43;3.20;;;;;;;15.10;84.33;101640.66;685883;28;1418;-58
2021/08/18 00:44:56;;;;;;;7.55;3.33;;;;;;;15.08;83.99;101637.22;685707;28;890;-58
2021/08/18 00:45:21;;;;;;;7.63;3.63;;;;;;;15.06;84.05;101639.94;685648;28;956;-57
2021/08/18 00:45:41;;;;;;;6.57;3.50;;;;;;;15.05;83.53;101632.06;685662;28;851;-59
2021/08/18 00:46:02;;;;;;;7.10;3.10;;;;;;;15.07;83.29;101638.13;685628;28;952;-58
2021/08/18 00:46:22;;;;;;;6.40;3.13;;;;;;;15.07;83.33;101640.78;685568;28;971;-59
2021/08/18 00:46:54;;;;;;;7.25;3.30;;;;;;;15.08;82.78;101637.22;685664;28;1018;-59
2021/08/18 00:47:15;;;;;;;7.18;3.22;;;;;;;15.08;82.52;101638.09;685592;28;869;-58
2021/08/18 00:47:46;;;;;;;6.70;3.30;;;;;;;15.09;82.66;101644.25;685587;28;1107;-59
2021/08/18 00:48:07;;;;;;;7.95;3.40;;;;;;;15.09;82.41;101645.09;685650;28;852;-58
2021/08/18 00:48:28;;;;;;;7.93;3.33;;;;;;;15.09;82.73;101639.81;685588;28;976;-58
2021/08/18 00:48:49;;;;;;;8.25;3.10;;;;;;;15.09;82.49;101641.59;685719;28;1548;-58
2021/08/18 00:49:12;;;;;;;7.20;2.93;;;;;;;15.08;82.10;101637.22;687916;28;1383;-58
2021/08/18 00:49:32;;;;;;;5.78;2.92;;;;;;;15.08;82.17;101640.75;688155;28;1858;-59
2021/08/18 00:49:53;;;;;;;6.05;3.10;;;;;;;15.08;81.90;101638.09;688427;28;869;-58
2021/08/18 00:50:19;;;;;;;6.68;3.33;;;;;;;15.09;82.32;101642.44;688113;28;1005;-59
2021/08/18 00:50:39;;;;;;;7.60;3.30;;;;;;;15.07;82.17;101636.38;688362;28;1078;-58
2021/08/18 00:51:01;;;;;;;6.70;3.10;;;;;;;15.07;82.35;101633.72;688228;28;1236;-58
2021/08/18 00:51:21;;;;;;;7.75;3.08;;;;;;;15.08;82.56;101632.78;685703;28;1080;-58
2021/08/18 00:51:41;;;;;;;7.27;3.20;;;;;;;15.08;82.35;101632.78;683003;29;1003;-58
2021/08/18 00:52:05;;;;;;;6.10;3.30;;;;;;;15.09;82.42;101634.50;682980;29;1203;-58
2021/08/18 00:52:26;;;;;;;6.32;3.10;;;;;;;15.10;82.31;101638.84;682718;28;924;-58
2021/08/18 00:52:47;;;;;;;6.20;3.03;;;;;;;15.11;82.13;101631.78;682589;28;1915;-59
2021/08/18 00:53:07;;;;;;;7.18;3.10;;;;;;;15.09;82.11;101639.81;682787;28;1374;-59
2021/08/18 00:53:28;;;;;;;6.75;3.30;;;;;;;15.11;82.03;101637.94;682799;28;964;-59
2021/08/18 00:53:49;;;;;;;7.30;3.20;;;;;;;15.10;81.85;101636.19;683075;29;849;-59
2021/08/18 00:54:09;;;;;;;8.85;3.40;;;;;;;15.10;82.17;101633.53;682977;28;833;-59
2021/08/18 00:54:29;;;;;;;8.30;3.40;;;;;;;15.11;82.47;101637.09;685656;28;1426;-59
2021/08/18 00:54:50;;;;;;;6.70;3.03;;;;;;;15.10;81.85;101636.19;688407;28;821;-59
2021/08/18 00:55:12;;;;;;;6.27;3.17;;;;;;;15.11;81.84;101637.09;688232;28;895;-59
2021/08/18 00:55:33;;;;;;;7.10;3.28;;;;;;;15.11;81.82;101635.28;688322;28;935;-59
2021/08/18 00:55:55;;;;;;;7.37;3.50;;;;;;;15.10;82.27;101630.88;688337;28;1012;-59
2021/08/18 00:56:18;;;;;;;7.40;3.25;;;;;;;15.12;82.14;101638.81;688210;28;964;-59
2021/08/18 00:56:41;;;;;;;8.68;3.30;;;;;;;15.11;82.55;101627.31;688301;28;1015;-59
2021/08/18 00:57:03;;;;;;;7.07;3.30;;;;;;;15.12;82.67;101633.50;688268;28;1015;-59
2021/08/18 00:57:23;;;;;;;6.63;3.35;;;;;;;15.12;82.69;101631.69;688145;28;892;-59
2021/08/18 00:57:43;;;;;;;5.65;3.00;;;;;;;15.14;82.47;101632.50;688311;28;729;-59
2021/08/18 00:58:04;;;;;;;6.53;3.00;;;;;;;15.12;82.72;101631.69;688337;28;1012;-59
2021/08/18 00:58:25;;;;;;;8.13;3.38;;;;;;;15.11;82.26;101627.31;688150;28;864;-60
2021/08/18 00:58:45;;;;;;;6.68;3.05;;;;;;;15.11;82.23;101635.28;686684;28;1343;-59
2021/08/18 00:59:07;;;;;;;6.20;3.10;;;;;;;15.11;82.18;101627.31;687329;28;1347;-59
2021/08/18 00:59:30;;;;;;;6.93;3.22;;;;;;;15.12;82.31;101631.69;688266;28;897;-59
2021/08/18 00:59:50;;;;;;;7.05;3.10;;;;;;;15.12;82.29;101633.50;688290;28;1254;-59
2021/08/18 01:00:15;;;;;;;7.33;3.13;;;;;;;15.11;82.30;101629.97;688271;28;960;-59
2021/08/18 01:00:36;;;;;;;7.22;3.30;;;;;;;15.10;82.49;101632.69;688284;28;991;-59
2021/08/18 01:00:57;;;;;;;7.03;3.30;;;;;;;15.10;82.48;101625.56;688263;28;1272;-59
2021/08/18 01:01:17;;;;;;;7.20;3.40;;;;;;;15.13;82.15;101632.53;688255;28;831;-59
2021/08/18 01:01:38;;;;;;;8.00;3.10;;;;;;;15.13;82.06;101621.91;688198;28;1016;-59
2021/08/18 01:02:00;;;;;;;7.53;3.42;;;;;;;15.13;82.14;101633.41;688381;28;1002;-58
2021/08/18 01:02:20;;;;;;;6.90;3.38;;;;;;;15.13;82.19;101630.75;688266;28;956;-59
2021/08/18 01:02:46;;;;;;;7.45;3.30;;;;;;;15.14;82.17;101635.16;687944;28;867;-59
2021/08/18 01:03:06;;;;;;;8.38;3.42;;;;;;;15.16;82.18;101629.75;688228;28;907;-59
2021/08/18 01:03:29;;;;;;;6.87;3.30;;;;;;;15.17;82.03;101628.81;688102;28;1091;-59
2021/08/18 01:03:50;;;;;;;6.93;3.20;;;;;;;15.17;82.02;101627.03;685571;28;1081;-59
2021/08/18 01:04:17;;;;;;;8.87;3.50;;;;;;;15.16;81.89;101627.94;685633;28;995;-59
2021/08/18 01:04:38;;;;;;;8.10;3.65;;;;;;;15.15;81.96;101623.59;686234;28;1514;-59
2021/08/18 01:04:58;;;;;;;8.60;3.50;;;;;;;15.15;82.43;101628.88;685825;28;1405;-59
2021/08/18 01:05:22;;;;;;;8.20;3.50;;;;;;;15.14;82.09;101627.19;686214;28;1394;-58
2021/08/18 01:05:42;;;;;;;7.68;3.25;;;;;;;15.14;82.34;101616.56;685500;28;1692;-59
2021/08/18 01:06:02;;;;;;;7.03;3.40;;;;;;;15.15;82.56;101626.22;685601;28;990;-59
2021/08/18 01:06:23;;;;;;;7.37;3.67;;;;;;;15.15;82.38;101623.59;685717;28;836;-60
2021/08/18 01:06:44;;;;;;;8.97;3.70;;;;;;;15.14;82.20;101621.88;685515;28;1453;-59
2021/08/18 01:07:05;;;;;;;7.00;3.45;;;;;;;15.14;81.93;101627.19;685533;28;872;-59
2021/08/18 01:07:25;;;;;;;6.85;3.50;;;;;;;15.15;81.95;101623.59;685600;28;831;-58
2021/08/18 01:07:47;;;;;;;7.33;3.43;;;;;;;15.14;81.82;101627.19;685678;28;814;-59
2021/08/18 01:08:08;;;;;;;7.45;3.30;;;;;;;15.16;82.24;101629.75;685839;28;1003;-58
2021/08/18 01:08:28;;;;;;;6.63;3.40;;;;;;;15.14;82.04;101623.63;685853;28;1488;-58
2021/08/18 01:08:48;;;;;;;8.10;3.43;;;;;;;15.14;82.06;101627.19;686972;28;1543;-59
2021/08/18 01:09:15;;;;;;;5.95;3.20;;;;;;;15.14;81.88;101626.28;688456;28;1007;-59
2021/08/18 01:09:35;;;;;;;7.07;3.20;;;;;;;15.14;81.89;101621.88;688728;28;912;-59
2021/08/18 01:09:56;;;;;;;6.57;3.50;;;;;;;15.14;82.18;101621.88;688635;28;1067;-59
2021/08/18 01:10:20;;;;;;;6.47;3.50;;;;;;;15.14;82.20;101627.19;688949;28;875;-59
2021/08/18 01:10:41;;;;;;;6.85;3.30;;;;;;;15.14;82.19;101623.63;688870;28;781;-59
2021/08/18 01:11:03;;;;;;;6.70;3.40;;;;;;;15.14;82.22;101620.97;687513;28;1453;-59
2021/08/18 01:11:24;;;;;;;7.20;3.55;;;;;;;15.13;82.36;101622.78;685731;28;1019;-59
2021/08/18 01:11:47;;;;;;;7.03;3.50;;;;;;;15.12;82.29;101618.41;685875;28;826;-59
2021/08/18 01:12:14;;;;;;;7.50;3.20;;;;;;;15.12;82.20;101628.19;685459;28;1020;-59
2021/08/18 01:12:35;;;;;;;6.72;3.17;;;;;;;15.12;82.06;101622.88;685626;28;1914;-59
2021/08/18 01:12:56;;;;;;;7.50;3.15;;;;;;;15.11;81.84;101615.84;685054;28;1028;-59
2021/08/18 01:13:18;;;;;;;8.70;3.53;;;;;;;15.11;81.98;101615.84;685572;28;924;-59
2021/08/18 01:13:38;;;;;;;7.70;3.50;;;;;;;15.12;81.83;101622.88;685608;28;1485;-59
2021/08/18 01:13:59;;;;;;;6.17;3.40;;;;;;;15.11;81.79;101622.00;688113;28;1422;-59
2021/08/18 01:14:22;;;;;;;6.35;3.53;;;;;;;15.12;81.90;101621.06;688383;28;963;-59
2021/08/18 01:14:43;;;;;;;7.18;3.53;;;;;;;15.12;81.83;101626.38;686096;28;1489;-58
2021/08/18 01:15:12;;;;;;;6.80;3.40;;;;;;;15.14;81.71;101621.88;685480;28;1252;-59
2021/08/18 01:15:34;;;;;;;6.43;3.10;;;;;;;15.13;81.35;101625.44;685411;28;948;-59
2021/08/18 01:15:54;;;;;;;7.07;3.38;;;;;;;15.14;81.65;101629.84;685225;28;1101;-59
2021/08/18 01:16:15;;;;;;;8.10;3.55;;;;;;;15.14;81.41;101615.66;685366;28;1074;-59
2021/08/18 01:16:37;;;;;;;6.87;3.37;;;;;;;15.18;80.75;101618.13;685540;28;865;-59
2021/08/18 01:16:58;;;;;;;6.80;3.40;;;;;;;15.18;80.84;101626.09;685386;28;900;-59
2021/08/18 01:17:19;;;;;;;6.20;3.30;;;;;;;15.19;81.28;101625.16;685379;28;888;-59
2021/08/18 01:17:46;;;;;;;6.32;3.58;;;;;;;15.18;81.08;101617.25;685640;28;854;-58
2021/08/18 01:18:06;;;;;;;7.00;3.63;;;;;;;15.18;81.23;101628.75;685732;28;968;-59
2021/08/18 01:18:29;;;;;;;7.43;3.72;;;;;;;15.18;81.29;101628.75;686660;28;1500;-59
2021/08/18 01:18:49;;;;;;;6.55;3.42;;;;;;;15.18;81.20;101623.44;685651;28;932;-58
2021/08/18 01:19:12;;;;;;;6.67;3.27;;;;;;;15.17;81.84;101627.03;685496;28;810;-58
2021/08/18 01:19:32;;;;;;;7.07;3.05;;;;;;;15.17;81.45;101619.06;685444;28;1094;-58
2021/08/18 01:19:53;;;;;;;7.40;3.10;;;;;;;15.18;81.48;101626.09;685564;28;1022;-58
2021/08/18 01:20:26;;;;;;;7.38;3.38;;;;;;;15.17;81.48;101624.38;685609;28;1130;-59
2021/08/18 01:20:46;;;;;;;6.68;3.30;;;;;;;15.16;81.64;101625.28;685540;28;838;-58
2021/08/18 01:21:09;;;;;;;6.87;3.27;;;;;;;15.16;81.47;101619.97;685577;28;1411;-58
2021/08/18 01:21:34;;;;;;;7.55;3.40;;;;;;;15.16;81.46;101625.28;685388;28;948;-58
2021/08/18 01:21:54;;;;;;;7.13;3.40;;;;;;;15.16;81.76;101630.59;685528;28;959;-59
2021/08/18 01:22:14;;;;;;;7.90;3.30;;;;;;;15.16;82.05;101624.44;686914;28;1481;-60
2021/08/18 01:22:35;;;;;;;8.52;3.22;;;;;;;15.16;82.29;101619.97;688196;28;1004;-58
2021/08/18 01:22:58;;;;;;;8.33;3.43;;;;;;;15.16;82.12;101624.44;687933;28;832;-59
2021/08/18 01:23:18;;;;;;;6.50;3.50;;;;;;;15.15;82.48;101628.88;688207;28;1072;-57
2021/08/18 01:23:38;;;;;;;6.57;3.50;;;;;;;15.15;82.64;101631.53;687996;28;809;-58
2021/08/18 01:23:59;;;;;;;6.40;3.47;;;;;;;15.15;82.38;101622.72;688278;28;984;-58
2021/08/18 01:24:26;;;;;;;6.20;3.45;;;;;;;15.13;82.62;101624.56;688331;28;797;-58
2021/08/18 01:24:46;;;;;;;7.20;3.40;;;;;;;15.14;82.65;101629.84;685626;28;1454;-59
2021/08/18 01:25:07;;;;;;;7.57;3.30;;;;;;;15.13;82.48;101628.09;685576;28;987;-58
2021/08/18 01:25:28;;;;;;;7.07;3.20;;;;;;;15.14;82.80;101635.16;685349;28;876;-58
2021/08/18 01:25:48;;;;;;;7.70;3.50;;;;;;;15.15;82.49;101634.19;685583;28;821;-58
2021/08/18 01:26:09;;;;;;;7.23;3.30;;;;;;;15.14;82.71;101624.53;685596;28;980;-59
2021/08/18 01:26:30;;;;;;;7.30;3.30;;;;;;;15.13;82.35;101628.09;685582;28;979;-59
2021/08/18 01:26:50;;;;;;;7.78;3.13;;;;;;;15.13;82.57;101632.53;685591;28;987;-60
2021/08/18 01:27:11;;;;;;;8.63;3.43;;;;;;;15.13;82.43;101624.56;685665;28;834;-59
2021/08/18 01:27:31;;;;;;;8.65;3.40;;;;;;;15.13;82.20;101630.75;685268;28;928;-60
2021/08/18 01:27:55;;;;;;;8.93;3.60;;;;;;;15.11;82.40;101626.47;685235;28;979;-60
2021/08/18 01:28:15;;;;;;;7.13;3.67;;;;;;;15.12;82.33;101630.84;685292;28;1101;-59
2021/08/18 01:28:36;;;;;;;7.07;3.38;;;;;;;15.16;82.45;101630.59;685438;28;1178;-59
2021/08/18 01:28:57;;;;;;;7.57;3.23;;;;;;;15.15;82.05;101623.59;685623;28;968;-58
2021/08/18 01:29:20;;;;;;;7.30;3.15;;;;;;;15.16;81.78;101624.44;685541;28;1004;-59
2021/08/18 01:29:41;;;;;;;7.93;3.33;;;;;;;15.19;81.84;101625.16;685273;28;896;-58
2021/08/18 01:30:23;;;;;;;7.80;3.50;;;;;;;15.19;81.95;101629.59;685611;28;1446;-60
2021/08/18 01:30:43;;;;;;;6.70;3.25;;;;;;;15.19;81.82;101625.16;685514;28;1086;-59
2021/08/18 01:31:03;;;;;;;5.90;3.20;;;;;;;15.19;82.22;101630.44;685588;28;1418;-59
2021/08/18 01:31:24;;;;;;;7.37;3.23;;;;;;;15.19;81.85;101634.91;685384;28;813;-58
2021/08/18 01:31:47;;;;;;;7.87;3.37;;;;;;;15.18;82.14;101633.19;685441;28;829;-59
2021/08/18 01:32:07;;;;;;;6.32;3.10;;;;;;;15.18;82.05;101631.41;685650;28;911;-59
2021/08/18 01:32:28;;;;;;;7.28;3.33;;;;;;;15.17;82.38;101626.16;685570;28;860;-59
2021/08/18 01:32:57;;;;;;;6.40;3.20;;;;;;;15.17;82.41;101631.47;684944;28;1910;-58
2021/08/18 01:33:17;;;;;;;7.72;3.38;;;;;;;15.17;82.04;101635.00;685593;28;915;-59
2021/08/18 01:33:39;;;;;;;6.37;3.40;;;;;;;15.16;82.50;101630.59;685497;28;896;-57
2021/08/18 01:34:01;;;;;;;8.32;3.50;;;;;;;15.17;82.56;101627.03;685543;28;845;-57
2021/08/18 01:34:35;;;;;;;7.25;3.30;;;;;;;15.16;82.44;101633.25;685510;28;885;-58
2021/08/18 01:34:55;;;;;;;5.88;3.17;;;;;;;15.17;82.48;101631.47;682851;28;865;-57
2021/08/18 01:35:29;;;;;;;6.27;3.20;;;;;;;15.17;82.87;101631.47;682788;29;996;-59
2021/08/18 01:35:51;;;;;;;8.68;3.50;;;;;;;15.16;82.80;101627.94;682839;28;892;-58
2021/08/18 01:36:11;;;;;;;6.40;2.97;;;;;;;15.16;82.69;101635.06;682960;28;1073;-58
2021/08/18 01:36:33;;;;;;;6.47;3.15;;;;;;;15.16;82.66;101629.75;682572;28;853;-58
2021/08/18 01:36:56;;;;;;;6.05;3.30;;;;;;;15.15;82.69;101623.59;682993;28;813;-58
2021/08/18 01:37:16;;;;;;;5.47;3.20;;;;;;;15.15;82.76;101636.84;682805;28;879;-58
2021/08/18 01:37:36;;;;;;;8.43;3.50;;;;;;;15.16;82.75;101633.25;682798;28;857;-59
2021/08/18 01:37:57;;;;;;;7.90;3.42;;;;;;;15.15;82.56;101636.00;682782;28;818;-57
2021/08/18 01:38:19;;;;;;;7.88;3.50;;;;;;;15.16;82.63;101629.75;682879;28;805;-58
2021/08/18 01:38:45;;;;;;;6.40;3.08;;;;;;;15.14;82.87;101631.59;683814;28;1431;-58
2021/08/18 01:39:07;;;;;;;5.80;3.10;;;;;;;15.14;82.88;101637.81;687868;28;1556;-58
2021/08/18 01:39:28;;;;;;;6.63;3.10;;;;;;;15.14;82.64;101636.91;688001;28;1474;-59
2021/08/18 01:39:54;;;;;;;6.77;3.10;;;;;;;15.15;82.88;101634.19;688148;28;1289;-59
2021/08/18 01:40:14;;;;;;;7.35;3.33;;;;;;;15.17;82.75;101634.09;685853;28;1375;-59
2021/08/18 01:40:40;;;;;;;7.43;3.50;;;;;;;15.15;82.88;101634.19;685254;28;1192;-58
2021/08/18 01:41:01;;;;;;;6.35;3.10;;;;;;;15.16;82.68;101641.22;685772;28;1359;-58
2021/08/18 01:41:21;;;;;;;6.88;3.28;;;;;;;15.16;82.68;101635.91;688161;28;817;-58
2021/08/18 01:41:47;;;;;;;6.73;3.30;;;;;;;15.15;82.71;101631.53;688068;28;1031;-58
2021/08/18 01:42:08;;;;;;;7.47;3.20;;;;;;;15.16;82.25;101635.91;687999;28;863;-59
2021/08/18 01:42:28;;;;;;;7.75;3.05;;;;;;;15.15;82.00;101631.53;688342;28;876;-59
2021/08/18 01:42:49;;;;;;;6.80;3.10;;;;;;;15.15;82.09;101639.50;687780;28;931;-59
2021/08/18 01:43:10;;;;;;;6.65;2.83;;;;;;;15.16;82.09;101635.06;688175;28;931;-59
2021/08/18 01:43:30;;;;;;;6.43;2.90;;;;;;;15.14;82.29;101629.84;688101;28;920;-59
2021/08/18 01:43:50;;;;;;;6.83;3.13;;;;;;;15.17;82.38;101637.66;688294;28;844;-59
2021/08/18 01:44:11;;;;;;;6.23;3.20;;;;;;;15.17;82.09;101631.47;688063;28;909;-59